Time;durP1;ratioP1;P1;durP2;ratioP2;P2;SDS_P1;SDS_P2;PMS_P1;PMS_P2;Temp;Humidity;BMP_temperature;BMP_pressure;BME280_temperature;BME280_humidity;BME280_pressure;Samples;Min_cycle;Max_cycle;Signal;HPM_P1;HPM_P2
2021/04/08 00:01:31;;;;;;;8.03;6.50;;;;;;;0.63;84.59;99165.27;1801455;79;21573;-63
2021/04/08 00:04:00;;;;;;;8.20;5.50;;;;;;;0.66;84.61;99161.33;1801359;79;21020;-61
2021/04/08 00:06:28;;;;;;;7.42;5.40;;;;;;;0.70;84.49;99160.80;1801426;79;21589;-75
2021/04/08 00:08:58;;;;;;;6.03;5.53;;;;;;;0.73;84.26;99167.56;1801308;79;21035;-62
2021/04/08 00:11:28;;;;;;;7.42;5.62;;;;;;;0.76;84.05;99168.75;1801477;79;21063;-70
2021/04/08 00:13:57;;;;;;;9.05;5.58;;;;;;;0.75;83.81;99171.75;1801409;79;21926;-72
2021/04/08 00:16:25;;;;;;;9.38;5.47;;;;;;;0.73;83.67;99177.37;1801318;79;21829;-79
2021/04/08 00:18:54;;;;;;;5.90;5.28;;;;;;;0.72;83.59;99172.28;1801373;79;20947;-79
2021/04/08 00:21:22;;;;;;;6.45;5.42;;;;;;;0.69;83.42;99178.34;1801366;79;20933;-79
2021/04/08 00:23:51;;;;;;;7.72;5.30;;;;;;;0.64;83.35;99175.07;1801436;79;21585;-79
2021/04/08 00:26:20;;;;;;;5.80;5.10;;;;;;;0.60;83.34;99181.16;1801440;79;22108;-78
2021/04/08 00:28:50;;;;;;;6.33;5.12;;;;;;;0.56;83.51;99186.81;1801317;79;21027;-72
2021/04/08 00:31:18;;;;;;;7.10;5.22;;;;;;;0.52;83.46;99189.07;1801400;79;21648;-79
2021/04/08 00:33:47;;;;;;;6.17;5.00;;;;;;;0.49;83.62;99188.31;1801345;79;21506;-79
2021/04/08 00:36:15;;;;;;;6.97;4.95;;;;;;;0.48;83.62;99191.76;1801417;79;21482;-78
2021/04/08 00:38:44;;;;;;;6.28;5.67;;;;;;;0.44;83.57;99190.17;1801430;79;22095;-79
2021/04/08 00:41:13;;;;;;;7.90;5.42;;;;;;;0.39;83.58;99190.33;1801352;79;21486;-79
2021/04/08 00:43:41;;;;;;;6.30;4.87;;;;;;;0.36;83.60;99195.97;1801427;79;21592;-79
2021/04/08 00:46:11;;;;;;;5.97;4.70;;;;;;;0.32;83.76;99187.53;1801352;79;21617;-79
2021/04/08 00:48:39;;;;;;;5.85;4.90;;;;;;;0.28;83.76;99190.63;1801306;78;21012;-79
2021/04/08 00:51:09;;;;;;;7.30;5.30;;;;;;;0.25;83.84;99197.55;1801407;79;22505;-79
2021/04/08 00:53:38;;;;;;;7.55;5.30;;;;;;;0.22;83.87;99198.91;1801387;79;21035;-73
2021/04/08 00:56:07;;;;;;;5.62;5.03;;;;;;;0.19;84.00;99206.23;1777226;79;21502;-72
2021/04/08 00:58:35;;;;;;;6.65;5.10;;;;;;;0.19;84.18;99208.79;1801321;79;21910;-74
2021/04/08 01:01:04;;;;;;;6.83;5.42;;;;;;;0.17;84.23;99209.27;1801505;79;21474;-79
2021/04/08 01:03:32;;;;;;;6.62;4.87;;;;;;;0.17;84.22;99214.39;1801483;79;22086;-80
2021/04/08 01:06:01;;;;;;;5.90;4.83;;;;;;;0.19;84.18;99214.35;1801344;79;21529;-79
2021/04/08 01:08:31;;;;;;;6.37;4.35;;;;;;;0.18;84.18;99219.91;1801334;79;21022;-79
2021/04/08 01:11:00;;;;;;;8.93;5.05;;;;;;;0.17;84.11;99227.19;1801388;79;21617;-80
2021/04/08 01:13:29;;;;;;;9.08;4.97;;;;;;;0.16;84.13;99229.79;1801404;79;20995;-80
2021/04/08 01:16:02;;;;;;;6.25;5.15;;;;;;;0.15;84.15;99230.67;1801407;79;22099;-62
2021/04/08 01:18:59;;;;;;;7.53;5.20;;;;;;;0.13;84.13;99232.43;1801434;79;21580;-80
2021/04/08 01:21:42;;;;;;;5.33;4.75;;;;;;;0.11;84.17;99240.15;1801521;79;21371;-75
2021/04/08 01:24:46;;;;;;;4.80;4.40;;;;;;;0.12;84.13;99243.55;1801428;79;21587;-80
2021/04/08 01:27:38;;;;;;;5.12;4.55;;;;;;;0.09;84.03;99240.63;1800857;79;21494;-72
2021/04/08 01:30:41;;;;;;;5.37;4.72;;;;;;;0.07;84.05;99242.39;1801319;79;22075;-71
2021/04/08 01:33:19;;;;;;;6.15;4.58;;;;;;;0.03;84.14;99248.47;1801357;79;21577;-80
2021/04/08 01:35:48;;;;;;;5.85;5.17;;;;;;;0.03;84.19;99251.02;1801383;79;21469;-79
2021/04/08 01:38:29;;;;;;;5.92;5.12;;;;;;;0.02;84.15;99251.91;1801300;79;20936;-80
2021/04/08 01:40:59;;;;;;;5.90;4.55;;;;;;;0.02;84.18;99249.34;1778666;79;21046;-74
2021/04/08 01:43:31;;;;;;;6.65;4.78;;;;;;;-0.01;84.14;99257.97;1801361;79;21448;-72
2021/04/08 01:45:59;;;;;;;6.35;4.53;;;;;;;-0.04;84.08;99253.37;1801368;79;21597;-74
2021/04/08 01:48:28;;;;;;;8.83;5.20;;;;;;;-0.06;84.16;99261.08;1801281;78;21481;-72
2021/04/08 01:51:00;;;;;;;8.38;5.12;;;;;;;-0.07;84.23;99267.08;1801298;79;21552;-81
2021/04/08 01:53:28;;;;;;;5.53;4.87;;;;;;;-0.07;84.28;99268.36;1801391;79;21033;-71
2021/04/08 01:55:58;;;;;;;7.60;4.85;;;;;;;-0.06;84.29;99269.20;1801477;79;22124;-79
2021/04/08 01:58:28;;;;;;;7.72;5.03;;;;;;;-0.07;84.28;99275.19;1801254;79;21059;-81
2021/04/08 02:00:57;;;;;;;8.03;5.67;;;;;;;-0.09;84.30;99271.39;1801471;79;21548;-75
2021/04/08 02:03:25;;;;;;;7.10;5.20;;;;;;;-0.10;84.35;99272.27;1801328;79;21482;-78
2021/04/08 02:05:53;;;;;;;6.62;5.12;;;;;;;-0.09;84.35;99281.62;1801381;79;21593;-76
2021/04/08 02:08:22;;;;;;;7.55;5.45;;;;;;;-0.09;84.37;99281.62;1801377;79;21186;-62
2021/04/08 02:10:52;;;;;;;5.67;5.08;;;;;;;-0.08;84.33;99287.15;1801264;79;21023;-72
2021/04/08 02:13:20;;;;;;;8.25;5.03;;;;;;;-0.09;84.23;99285.47;1801358;79;21553;-79
2021/04/08 02:15:50;;;;;;;8.65;5.37;;;;;;;-0.09;84.17;99289.31;1801342;79;21458;-81
2021/04/08 02:18:21;;;;;;;5.58;5.00;;;;;;;-0.09;84.10;99291.86;1801500;79;21545;-56
2021/04/08 02:20:52;;;;;;;5.90;5.30;;;;;;;-0.09;84.21;99294.42;1801383;79;22144;-55
2021/04/08 02:23:22;;;;;;;6.40;4.92;;;;;;;-0.09;84.33;99293.14;1801459;79;21027;-55
2021/04/08 02:25:53;;;;;;;7.33;5.20;;;;;;;-0.09;84.32;99302.09;1801498;79;21031;-55
2021/04/08 02:28:22;;;;;;;6.62;5.05;;;;;;;-0.10;84.20;99302.98;1801441;79;21031;-55
2021/04/08 02:30:51;;;;;;;6.37;5.75;;;;;;;-0.13;84.11;99304.33;1801487;79;21563;-56
2021/04/08 02:33:27;;;;;;;6.20;4.92;;;;;;;-0.13;84.12;99316.28;1801511;79;21365;-55
2021/04/08 02:35:57;;;;;;;6.67;5.50;;;;;;;-0.14;84.10;99322.28;1801694;79;21498;-56
2021/04/08 02:38:27;;;;;;;10.63;6.03;;;;;;;-0.17;84.08;99335.98;1801589;79;21382;-56
2021/04/08 02:40:57;;;;;;;8.18;5.85;;;;;;;-0.18;84.11;99339.42;1801562;79;20936;-56
2021/04/08 02:43:26;;;;;;;7.15;5.62;;;;;;;-0.20;84.21;99341.17;1801543;79;21521;-55
2021/04/08 02:45:54;;;;;;;5.85;5.25;;;;;;;-0.20;84.21;99351.84;1801521;79;21945;-56
2021/04/08 02:48:24;;;;;;;6.87;5.47;;;;;;;-0.20;84.11;99351.84;1801504;78;21573;-56
2021/04/08 02:51:00;;;;;;;8.65;5.95;;;;;;;-0.21;84.09;99353.56;1806584;79;21003;-70
2021/04/08 02:53:47;;;;;;;;;;;;;;;-0.22;84.23;99363.39;1808670;79;21924;-61
2021/04/08 02:56:30;;;;;;;6.37;4.83;;;;;;;-0.21;84.19;99366.79;1806424;79;20184;-57
2021/04/08 02:59:11;;;;;;;6.65;5.62;;;;;;;-0.24;84.19;99374.53;1806620;79;21396;-62
2021/04/08 03:01:51;;;;;;;7.50;5.47;;;;;;;-0.25;84.35;99377.97;1778252;79;21039;-85
2021/04/08 03:04:21;;;;;;;8.33;5.50;;;;;;;-0.26;84.37;99379.69;1807085;79;20948;-84
2021/04/08 03:06:51;;;;;;;5.67;4.97;;;;;;;-0.25;84.52;99385.64;1806633;79;21043;-85
2021/04/08 03:09:24;;;;;;;8.10;6.00;;;;;;;-0.24;84.56;99395.84;1806592;79;21580;-86
2021/04/08 03:11:52;;;;;;;7.85;5.95;;;;;;;-0.23;84.62;99396.69;1805972;79;22073;-86
2021/04/08 03:14:22;;;;;;;6.72;5.78;;;;;;;-0.22;84.48;99403.48;1806603;79;20967;-59
2021/04/08 03:16:51;;;;;;;7.20;5.67;;;;;;;-0.21;84.47;99407.72;1806542;79;21578;-84
2021/04/08 03:19:26;;;;;;;8.93;5.45;;;;;;;-0.18;84.48;99412.77;1806551;79;21581;-85
2021/04/08 03:21:54;;;;;;;7.37;5.85;;;;;;;-0.16;84.45;99412.30;1806643;79;20955;-89
2021/04/08 03:24:23;;;;;;;8.08;5.92;;;;;;;-0.14;84.22;99411.83;1806568;79;21489;-84
2021/04/08 03:26:52;;;;;;;6.72;5.72;;;;;;;-0.12;84.22;99421.59;1806519;79;20983;-84
2021/04/08 03:29:20;;;;;;;7.75;6.15;;;;;;;-0.09;84.13;99427.92;1806543;79;21605;-87
2021/04/08 03:31:49;;;;;;;6.80;5.55;;;;;;;-0.06;84.20;99434.25;1806515;79;21633;-83
2021/04/08 03:34:17;;;;;;;9.58;6.12;;;;;;;-0.01;84.01;99435.84;1806652;79;21367;-78
2021/04/08 03:36:46;;;;;;;8.98;6.47;;;;;;;0.04;83.82;99439.98;1806551;79;22302;-84
2021/04/08 03:39:14;;;;;;;9.43;6.55;;;;;;;0.09;83.76;99443.28;1777627;79;21144;-55
2021/04/08 03:41:43;;;;;;;8.13;6.12;;;;;;;0.14;83.66;99447.42;1806617;79;21537;-84
2021/04/08 03:44:15;;;;;;;7.47;5.78;;;;;;;0.19;83.51;99452.44;1806762;79;21134;-81
2021/04/08 03:46:45;;;;;;;8.85;6.30;;;;;;;0.24;83.36;99459.13;1807027;79;20936;-76
2021/04/08 03:49:15;;;;;;;7.65;5.97;;;;;;;0.30;83.10;99459.43;1811263;78;22074;-76
2021/04/08 03:51:44;;;;;;;9.65;5.90;;;;;;;0.37;82.92;99469.94;1827192;78;20930;-74
2021/04/08 03:54:13;;;;;;;8.58;6.42;;;;;;;0.48;82.47;99469.22;1799506;79;21565;-73
2021/04/08 03:56:44;;;;;;;8.05;6.00;;;;;;;0.56;82.11;99481.41;1799434;79;21048;-76
2021/04/08 03:59:12;;;;;;;9.48;6.62;;;;;;;0.65;81.80;99475.22;1799640;79;20996;-76
2021/04/08 04:01:41;;;;;;;6.87;5.97;;;;;;;0.72;81.46;99478.03;1799469;79;22000;-76
2021/04/08 04:04:09;;;;;;;7.47;6.70;;;;;;;0.81;81.21;99480.34;1799692;79;21606;-78
2021/04/08 04:06:42;;;;;;;9.48;6.33;;;;;;;0.98;81.15;99484.61;1799698;79;21566;-73
2021/04/08 04:09:11;;;;;;;6.55;5.75;;;;;;;1.20;81.42;99486.14;1799428;79;21925;-77
2021/04/08 04:11:40;;;;;;;6.33;5.75;;;;;;;1.51;80.91;99486.16;1799458;79;21012;-76
2021/04/08 04:14:11;;;;;;;7.50;5.97;;;;;;;1.78;80.16;99481.95;1799479;79;21147;-65
2021/04/08 04:16:42;;;;;;;8.80;6.65;;;;;;;2.06;79.39;99484.52;1799415;79;21008;-65
2021/04/08 04:19:12;;;;;;;8.38;6.50;;;;;;;2.38;78.73;99486.12;1799532;79;20953;-73
2021/04/08 04:21:41;;;;;;;7.60;5.92;;;;;;;2.68;77.74;99489.42;1799522;79;21554;-78
2021/04/08 04:24:09;;;;;;;7.28;5.78;;;;;;;2.84;76.41;99489.73;1799472;79;21224;-79
2021/04/08 04:26:38;;;;;;;10.08;6.72;;;;;;;2.86;75.23;99496.51;1799547;79;22136;-76
2021/04/08 04:29:06;;;;;;;7.87;7.08;;;;;;;2.78;74.79;99494.66;1799328;79;21858;-78
2021/04/08 04:31:35;;;;;;;8.43;6.60;;;;;;;2.75;74.64;99497.78;1799661;79;21462;-70
2021/04/08 04:34:05;;;;;;;9.33;6.83;;;;;;;2.71;74.62;99504.75;1799457;79;21549;-72
2021/04/08 04:36:34;;;;;;;9.43;7.08;;;;;;;2.73;74.77;99513.70;1799535;79;20937;-69
2021/04/08 04:39:03;;;;;;;11.20;6.97;;;;;;;2.82;74.85;99509.52;1799482;79;21251;-70
2021/04/08 04:41:31;;;;;;;8.58;6.72;;;;;;;3.06;74.85;99510.44;1799382;79;20973;-76
2021/04/08 04:44:00;;;;;;;7.25;6.30;;;;;;;3.37;74.55;99521.34;1799393;79;21581;-71
2021/04/08 04:46:28;;;;;;;8.48;6.58;;;;;;;3.64;73.42;99516.94;1799501;79;21645;-63
2021/04/08 04:48:57;;;;;;;10.75;8.00;;;;;;;3.95;72.29;99523.11;1750190;79;21494;-64
2021/04/08 04:51:26;;;;;;;11.43;8.10;;;;;;;4.24;71.51;99523.29;1768533;79;21339;-72
2021/04/08 04:53:54;;;;;;;10.72;8.40;;;;;;;4.57;70.75;99528.86;1797396;79;21486;-73
2021/04/08 04:56:22;;;;;;;8.78;7.72;;;;;;;4.90;69.82;99530.52;1797396;79;21190;-60
2021/04/08 04:58:51;;;;;;;9.53;7.60;;;;;;;5.25;68.43;99527.75;1795411;78;22033;-64
2021/04/08 05:01:20;;;;;;;8.50;7.03;;;;;;;5.58;67.02;99534.52;1799258;78;21023;-74
2021/04/08 05:03:48;;;;;;;8.20;6.37;;;;;;;5.88;66.09;99534.44;1794191;78;21649;-60
2021/04/08 05:06:19;;;;;;;8.35;6.65;;;;;;;6.16;65.28;99535.80;1796151;79;21949;-69
2021/04/08 05:08:47;;;;;;;8.33;6.97;;;;;;;6.40;64.02;99534.64;1796665;79;21813;-76
2021/04/08 05:11:16;;;;;;;9.43;6.33;;;;;;;6.64;62.92;99536.08;1795431;79;21026;-70
2021/04/08 05:13:44;;;;;;;9.53;6.65;;;;;;;6.85;62.06;99541.95;1796113;78;21592;-72
2021/04/08 05:16:13;;;;;;;11.03;7.22;;;;;;;7.06;61.42;99559.94;1788395;78;21942;-68
2021/04/08 05:21:12;;;;;;;8.03;6.50;;;;;;;7.43;59.77;99550.71;1847896;77;22707;-76
2021/04/08 05:23:41;;;;;;;8.98;6.50;;;;;;;7.56;59.03;99556.95;1811862;77;20992;-59
2021/04/08 05:26:10;;;;;;;9.08;6.37;;;;;;;7.71;58.21;99568.25;1804465;78;21367;-72
2021/04/08 05:28:39;;;;;;;9.23;7.08;;;;;;;7.85;58.12;99566.25;1813479;78;21923;-64
2021/04/08 05:31:09;;;;;;;9.00;6.58;;;;;;;8.01;57.35;99574.41;1731435;81;21805;-57
2021/04/08 05:33:38;;;;;;;8.78;6.87;;;;;;;8.17;56.77;99572.31;1755174;81;21058;-59
2021/04/08 05:36:09;;;;;;;9.93;7.25;;;;;;;8.28;55.83;99577.77;1784076;79;21507;-57
2021/04/08 05:38:38;;;;;;;8.33;6.25;;;;;;;8.38;55.98;99581.58;1742225;81;21591;-58
2021/04/08 05:41:10;;;;;;;7.72;6.28;;;;;;;8.51;55.43;99588.21;1737218;81;21074;-65
2021/04/08 05:43:42;;;;;;;9.48;6.97;;;;;;;8.68;54.64;99586.83;1747110;81;21006;-66
2021/04/08 05:46:13;;;;;;;7.65;6.30;;;;;;;8.82;54.34;99593.83;1754102;81;21183;-56
2021/04/08 05:48:44;;;;;;;7.62;6.28;;;;;;;8.99;53.79;99594.57;1755340;81;21029;-60
2021/04/08 05:51:14;;;;;;;7.72;6.42;;;;;;;9.15;53.84;99595.84;1757301;80;21151;-59
2021/04/08 05:53:46;;;;;;;7.90;6.10;;;;;;;9.23;53.04;99600.11;1721577;82;21025;-70
2021/04/08 05:56:21;;;;;;;7.35;6.65;;;;;;;9.26;52.59;99599.94;1752032;81;21580;-71
2021/04/08 05:58:52;;;;;;;7.62;6.25;;;;;;;9.26;52.44;99600.40;1778606;79;20997;-66
2021/04/08 06:01:22;;;;;;;6.62;5.95;;;;;;;9.23;51.72;99607.06;1751518;80;21070;-68
2021/04/08 06:03:54;;;;;;;7.80;6.97;;;;;;;9.17;52.11;99609.58;1777019;80;21199;-69
2021/04/08 06:06:25;;;;;;;8.30;6.33;;;;;;;9.08;51.79;99608.80;1740447;81;21611;-71
2021/04/08 06:08:54;;;;;;;9.30;6.47;;;;;;;9.00;52.03;99604.50;1755211;81;21574;-57
2021/04/08 06:11:25;;;;;;;8.35;7.17;;;;;;;8.93;52.00;99616.98;1751109;81;21069;-67
2021/04/08 06:13:55;;;;;;;8.03;6.97;;;;;;;8.90;51.98;99608.53;1783138;79;21610;-61
2021/04/08 06:16:24;;;;;;;9.13;6.87;;;;;;;8.93;52.36;99618.74;1776554;79;22347;-68
2021/04/08 06:18:54;;;;;;;8.83;6.70;;;;;;;8.98;52.23;99612.37;1798477;79;21353;-69
2021/04/08 06:21:24;;;;;;;8.23;7.25;;;;;;;9.11;52.37;99610.39;1736349;81;20954;-73
2021/04/08 06:23:54;;;;;;;7.05;6.33;;;;;;;9.26;51.44;99607.73;1798724;78;21694;-61
2021/04/08 06:26:23;;;;;;;7.75;6.17;;;;;;;9.42;51.29;99613.35;1755274;80;21610;-59
2021/04/08 06:28:51;;;;;;;10.80;6.50;;;;;;;9.55;50.84;99605.23;1740242;82;22335;-69
2021/04/08 06:31:21;;;;;;;8.60;7.20;;;;;;;9.61;50.43;99612.17;1733162;82;20972;-63
2021/04/08 06:33:49;;;;;;;8.05;6.95;;;;;;;9.59;50.21;99614.05;1750678;81;21599;-58
2021/04/08 06:36:19;;;;;;;8.83;7.47;;;;;;;9.50;50.58;99621.55;1756024;81;21599;-66
2021/04/08 06:38:49;;;;;;;8.05;6.80;;;;;;;9.42;51.25;99628.95;1799053;79;21579;-63
2021/04/08 06:41:19;;;;;;;9.55;6.55;;;;;;;9.40;51.56;99626.44;1799847;79;22415;-74
2021/04/08 06:43:48;;;;;;;9.43;7.10;;;;;;;9.43;52.25;99626.72;1804036;79;21629;-66
2021/04/08 06:46:17;;;;;;;7.47;6.72;;;;;;;9.49;51.15;99628.97;1743958;80;21168;-66
2021/04/08 06:49:05;;;;;;;7.85;6.35;;;;;;;9.59;50.66;99637.45;1740084;81;21053;-74
2021/04/08 06:51:34;;;;;;;7.25;6.47;;;;;;;9.68;51.33;99642.55;1739889;81;22660;-64
2021/04/08 06:54:05;;;;;;;8.95;7.28;;;;;;;9.79;50.10;99645.83;1736647;82;21589;-72
2021/04/08 06:56:34;;;;;;;10.10;7.08;;;;;;;9.88;49.94;99647.42;1763010;80;21385;-69
2021/04/08 06:59:03;;;;;;;7.00;6.20;;;;;;;10.00;50.13;99650.57;1732240;82;21022;-62
2021/04/08 07:01:35;;;;;;;7.72;6.35;;;;;;;10.17;49.71;99644.36;1707124;82;21488;-72
2021/04/08 07:04:07;;;;;;;7.45;6.70;;;;;;;10.31;49.19;99642.27;1727510;81;20959;-68
2021/04/08 07:06:36;;;;;;;10.13;7.80;;;;;;;10.45;48.36;99651.34;1718915;82;22286;-61
2021/04/08 07:09:08;;;;;;;8.23;7.10;;;;;;;10.58;48.42;99648.82;1729198;81;21078;-70
2021/04/08 07:11:40;;;;;;;8.85;6.92;;;;;;;10.77;47.41;99656.33;1760505;80;21054;-63
2021/04/08 07:14:11;;;;;;;10.30;7.42;;;;;;;10.95;47.85;99663.80;1740524;81;21461;-70
2021/04/08 07:16:39;;;;;;;8.85;7.08;;;;;;;11.18;48.07;99662.34;1738487;82;20938;-77
2021/04/08 07:19:08;;;;;;;7.03;6.00;;;;;;;11.41;46.96;99660.00;1756487;81;21553;-64
2021/04/08 07:21:41;;;;;;;10.35;6.90;;;;;;;11.60;46.41;99665.66;1762305;81;22004;-68
2021/04/08 07:24:21;;;;;;;9.20;6.75;;;;;;;11.70;46.31;99672.78;1730259;81;21670;-62
2021/04/08 07:27:00;;;;;;;6.90;6.00;;;;;;;11.82;46.24;99675.55;1756867;81;21387;-57
2021/04/08 07:29:49;;;;;;;6.65;5.83;;;;;;;11.81;44.39;99670.80;1741034;82;21607;-58
2021/04/08 07:32:24;;;;;;;8.00;6.08;;;;;;;11.72;43.75;99680.97;1764103;80;22385;-73
2021/04/08 07:34:57;;;;;;;6.80;5.90;;;;;;;11.66;43.38;99677.00;1751297;81;21151;-74
2021/04/08 07:37:34;;;;;;;7.33;5.37;;;;;;;11.68;43.34;99678.56;1755419;81;21635;-72
2021/04/08 07:40:08;;;;;;;7.83;5.62;;;;;;;11.76;43.79;99680.67;1771229;80;21193;-68
2021/04/08 07:42:36;;;;;;;7.15;5.28;;;;;;;11.87;44.03;99680.00;1775050;79;21006;-69
2021/04/08 07:45:06;;;;;;;7.47;4.90;;;;;;;11.99;41.80;99681.31;1768485;79;21942;-61
2021/04/08 07:47:37;;;;;;;5.20;4.70;;;;;;;12.08;41.34;99681.61;1767979;80;21053;-75
2021/04/08 07:50:17;;;;;;;5.47;4.75;;;;;;;12.13;42.33;99688.19;1762059;80;21064;-74
2021/04/08 07:52:49;;;;;;;7.28;5.58;;;;;;;12.35;41.73;99690.19;1765580;80;21026;-72
2021/04/08 07:55:31;;;;;;;6.37;5.20;;;;;;;12.46;40.63;99693.34;1758791;80;21080;-71
2021/04/08 07:58:13;;;;;;;5.65;5.15;;;;;;;12.32;40.53;99702.14;1755061;81;22242;-75
2021/04/08 08:00:51;;;;;;;5.40;4.90;;;;;;;11.99;39.88;99695.67;1731701;81;21089;-71
2021/04/08 08:03:33;;;;;;;6.80;6.00;;;;;;;11.72;41.36;99690.94;1753227;80;21519;-72
2021/04/08 08:06:03;;;;;;;7.50;5.45;;;;;;;11.57;42.24;99684.98;1759758;80;20989;-66
2021/04/08 08:08:41;;;;;;;5.78;5.10;;;;;;;11.54;42.44;99696.91;1754043;81;21057;-68
2021/04/08 08:11:16;;;;;;;6.12;5.33;;;;;;;11.60;42.55;99698.26;1732332;81;21198;-67
2021/04/08 08:13:51;;;;;;;7.40;4.92;;;;;;;11.72;41.59;99698.77;1742361;81;21669;-62
2021/04/08 08:16:23;;;;;;;5.35;4.85;;;;;;;11.79;39.87;99700.06;1745472;81;20960;-70
2021/04/08 08:18:54;;;;;;;6.40;4.83;;;;;;;11.72;39.22;99701.38;1738394;81;21057;-60
2021/04/08 08:21:37;;;;;;;5.28;4.60;;;;;;;11.51;39.70;99698.42;1780503;80;20942;-65
2021/04/08 08:24:14;;;;;;;7.67;4.85;;;;;;;11.38;39.03;99695.39;1730147;81;21202;-71
2021/04/08 08:26:46;;;;;;;8.03;5.33;;;;;;;11.14;39.90;99693.91;1748291;82;21131;-73
2021/04/08 08:29:22;;;;;;;7.00;5.37;;;;;;;11.01;41.15;99702.97;1816297;78;20982;-61
2021/04/08 08:32:05;;;;;;;6.40;5.35;;;;;;;10.91;42.01;99704.00;1812791;78;21408;-59
2021/04/08 08:34:40;;;;;;;5.58;5.00;;;;;;;11.00;40.69;99709.95;1805429;78;21396;-68
2021/04/08 08:37:11;;;;;;;5.50;4.78;;;;;;;10.93;39.51;99709.95;1813354;78;21189;-73
2021/04/08 08:39:47;;;;;;;5.25;4.70;;;;;;;10.78;39.99;99717.91;1804390;78;20934;-72
2021/04/08 08:42:20;;;;;;;5.87;5.28;;;;;;;10.69;40.00;99714.09;1809021;78;21009;-63
2021/04/08 08:44:50;;;;;;;6.22;5.58;;;;;;;10.67;40.38;99716.80;1746922;81;21025;-80
2021/04/08 08:47:28;;;;;;;6.40;4.50;;;;;;;10.69;40.70;99712.33;1738140;81;21623;-76
2021/04/08 08:50:13;;;;;;;4.92;4.53;;;;;;;10.67;39.70;99721.16;1818662;78;21195;-67
2021/04/08 08:52:43;;;;;;;5.22;4.72;;;;;;;10.52;39.49;99724.23;1746202;81;22403;-75
2021/04/08 08:55:17;;;;;;;5.62;5.03;;;;;;;10.38;38.99;99732.52;1778694;78;21026;-83
2021/04/08 08:57:53;;;;;;;5.28;4.75;;;;;;;10.32;40.31;99732.42;1813546;78;21035;-72
2021/04/08 09:00:26;;;;;;;5.40;4.78;;;;;;;10.43;41.15;99733.89;1814163;78;21495;-74
2021/04/08 09:02:58;;;;;;;6.17;4.87;;;;;;;10.51;39.96;99742.55;1806231;78;21192;-75
2021/04/08 09:05:29;;;;;;;6.80;4.67;;;;;;;10.44;39.00;99735.56;1815348;78;21598;-81
2021/04/08 09:08:01;;;;;;;8.63;4.78;;;;;;;10.25;39.11;99741.52;1753911;80;21053;-73
2021/04/08 09:10:34;;;;;;;5.72;5.12;;;;;;;10.06;39.71;99744.78;1702887;82;21579;-77
2021/04/08 09:13:05;;;;;;;7.65;5.60;;;;;;;9.91;39.53;99748.67;1811336;78;21049;-73
2021/04/08 09:15:35;;;;;;;7.03;4.80;;;;;;;9.90;39.95;99740.50;1757459;79;21960;-79
2021/04/08 09:18:06;;;;;;;6.87;5.00;;;;;;;9.94;38.59;99742.00;1713488;82;21023;-71
2021/04/08 09:20:36;;;;;;;6.10;5.50;;;;;;;10.07;39.02;99741.26;1750865;81;21025;-71
2021/04/08 09:23:08;;;;;;;5.28;4.78;;;;;;;10.16;39.49;99743.32;1804700;78;21598;-70
2021/04/08 09:25:53;;;;;;;5.00;4.30;;;;;;;10.17;38.95;99754.11;1804621;78;21049;-74
2021/04/08 09:28:31;;;;;;;7.83;5.15;;;;;;;9.99;38.47;99749.07;1738488;81;21199;-64
2021/04/08 09:31:19;;;;;;;5.97;4.65;;;;;;;9.76;39.03;99752.61;1736638;81;21041;-75
2021/04/08 09:33:54;;;;;;;5.87;4.55;;;;;;;9.53;38.59;99754.77;1737505;82;21560;-72
2021/04/08 09:36:37;;;;;;;5.47;4.97;;;;;;;9.38;39.59;99760.81;1731448;82;21486;-72
2021/04/08 09:39:14;;;;;;;7.92;5.25;;;;;;;9.19;40.20;99774.45;1735272;81;21722;-70
2021/04/08 09:41:49;;;;;;;5.80;5.20;;;;;;;8.95;40.78;99783.09;1798045;78;21787;-82
2021/04/08 09:44:18;;;;;;;7.70;6.47;;;;;;;8.68;41.77;99789.30;1732354;82;21010;-81
2021/04/08 09:46:59;;;;;;;6.40;5.08;;;;;;;8.48;43.79;99800.69;1747001;81;21654;-82
2021/04/08 09:49:43;;;;;;;4.65;4.25;;;;;;;8.29;43.23;99799.94;1806092;79;21017;-82
2021/04/08 09:52:12;;;;;;;5.30;4.60;;;;;;;8.13;42.41;99797.26;1716407;82;21058;-78
2021/04/08 09:54:46;;;;;;;5.22;4.72;;;;;;;8.12;41.18;99797.33;1785222;79;21372;-68
2021/04/08 09:57:34;;;;;;;5.87;4.80;;;;;;;8.20;41.45;99794.74;1774449;79;21085;-68
2021/04/08 10:00:08;;;;;;;6.60;5.10;;;;;;;8.37;42.40;99795.23;1761278;80;21580;-72
2021/04/08 10:02:57;;;;;;;6.55;5.15;;;;;;;8.54;42.79;99788.70;1756427;81;20999;-77
2021/04/08 10:05:38;;;;;;;10.58;5.47;;;;;;;8.70;43.12;99782.27;1730618;82;21027;-81
2021/04/08 10:08:12;;;;;;;7.42;5.10;;;;;;;8.84;43.57;99790.14;1726851;82;22114;-75
2021/04/08 10:10:44;;;;;;;6.92;5.40;;;;;;;8.97;43.41;99787.74;1736168;82;21018;-65
2021/04/08 10:13:28;;;;;;;8.15;5.55;;;;;;;9.09;42.96;99787.09;1801680;79;21045;-77
2021/04/08 10:15:59;;;;;;;6.60;4.85;;;;;;;9.24;43.70;99786.24;1806120;79;21071;-76
2021/04/08 10:18:29;;;;;;;5.78;4.30;;;;;;;9.42;42.81;99795.27;1810482;79;21151;-62
2021/04/08 10:21:01;;;;;;;5.50;4.97;;;;;;;9.55;42.59;99791.91;1812232;79;21183;-77
2021/04/08 10:23:43;;;;;;;4.65;4.20;;;;;;;9.64;41.99;99791.37;1811606;79;21622;-67
2021/04/08 10:26:15;;;;;;;5.10;4.60;;;;;;;9.66;41.09;99793.88;1790694;79;20997;-78
2021/04/08 10:28:47;;;;;;;5.97;4.90;;;;;;;9.59;41.28;99797.78;1799332;79;22139;-74
2021/04/08 10:31:36;;;;;;;5.58;4.58;;;;;;;9.51;40.37;99797.36;1802580;79;21001;-76
2021/04/08 10:34:10;;;;;;;5.03;4.53;;;;;;;9.40;40.78;99795.80;1799732;79;22283;-68
2021/04/08 10:36:45;;;;;;;5.67;4.70;;;;;;;9.32;42.17;99804.02;1737498;82;21041;-78
2021/04/08 10:39:17;;;;;;;4.40;4.00;;;;;;;9.27;42.14;99799.53;1778571;79;21164;-77
2021/04/08 10:42:12;;;;;;;4.55;4.15;;;;;;;9.28;41.24;99797.31;1780778;79;22220;-64
2021/04/08 10:44:48;;;;;;;6.50;4.30;;;;;;;9.32;41.29;99796.22;1728227;82;21639;-73
2021/04/08 10:47:25;;;;;;;5.92;4.75;;;;;;;9.34;41.30;99791.31;1746931;81;23118;-66
2021/04/08 10:49:58;;;;;;;4.75;4.22;;;;;;;9.32;40.99;99800.12;1744155;82;21061;-75
2021/04/08 10:52:34;;;;;;;4.50;4.10;;;;;;;9.29;40.56;99796.39;1749762;81;21018;-74
2021/04/08 10:55:08;;;;;;;5.75;4.10;;;;;;;9.29;40.20;99791.19;1753673;81;21021;-76
2021/04/08 10:57:36;;;;;;;7.28;4.05;;;;;;;9.33;40.18;99787.05;1794026;79;21034;-74
2021/04/08 11:00:07;;;;;;;3.83;3.52;;;;;;;9.39;41.00;99793.67;1806671;79;22140;-63
2021/04/08 11:02:39;;;;;;;5.00;4.08;;;;;;;9.45;39.59;99802.89;1787727;79;21159;-64
2021/04/08 11:05:25;;;;;;;6.75;4.92;;;;;;;9.43;39.60;99798.23;1802552;79;22153;-68
2021/04/08 11:07:58;;;;;;;5.08;4.42;;;;;;;9.48;39.65;99802.72;1799051;79;21037;-76
2021/04/08 11:10:28;;;;;;;4.97;4.55;;;;;;;9.53;40.16;99807.21;1803511;79;21593;-72
2021/04/08 11:12:59;;;;;;;5.00;4.28;;;;;;;9.58;40.59;99806.50;1727759;82;21198;-64
2021/04/08 11:15:30;;;;;;;5.35;4.83;;;;;;;9.60;40.60;99809.36;1780937;79;21580;-71
2021/04/08 11:18:07;;;;;;;6.80;5.60;;;;;;;9.54;41.33;99799.79;1755647;81;21567;-73
2021/04/08 11:20:39;;;;;;;5.40;4.90;;;;;;;9.47;42.01;99810.98;1738981;82;21005;-68
2021/04/08 11:23:08;;;;;;;5.53;4.83;;;;;;;9.37;43.36;99815.00;1760409;80;21607;-71
2021/04/08 11:25:38;;;;;;;5.80;5.20;;;;;;;9.30;44.09;99814.95;1764791;79;21331;-64
2021/04/08 11:28:08;;;;;;;6.12;5.08;;;;;;;9.29;44.67;99813.27;1758310;79;21038;-75
2021/04/08 11:30:39;;;;;;;6.95;4.92;;;;;;;9.30;44.19;99819.69;1758372;79;21077;-71
2021/04/08 11:33:13;;;;;;;6.92;5.53;;;;;;;9.29;44.65;99825.80;1776020;79;21473;-71
2021/04/08 11:35:45;;;;;;;7.25;5.50;;;;;;;9.21;45.20;99822.78;1769006;80;20975;-67
2021/04/08 11:38:16;;;;;;;5.87;5.10;;;;;;;9.00;45.99;99820.88;1733738;82;22108;-75
2021/04/08 11:41:05;;;;;;;5.60;5.03;;;;;;;8.83;46.86;99826.57;1807702;78;21155;-72
2021/04/08 11:43:43;;;;;;;6.92;5.28;;;;;;;8.74;47.35;99834.41;1795276;78;21594;-71
2021/04/08 11:46:35;;;;;;;7.22;5.40;;;;;;;8.77;49.08;99834.25;1803694;78;20954;-76
2021/04/08 11:49:18;;;;;;;6.20;5.50;;;;;;;8.85;48.05;99829.47;1803029;78;20976;-73
2021/04/08 11:51:49;;;;;;;6.72;5.53;;;;;;;8.91;46.79;99823.95;1802265;79;20997;-70
2021/04/08 11:54:18;;;;;;;6.12;5.53;;;;;;;8.95;47.07;99824.64;1801363;78;21990;-69
2021/04/08 11:56:48;;;;;;;7.55;6.20;;;;;;;8.95;47.34;99825.48;1732913;82;21045;-75
2021/04/08 11:59:22;;;;;;;8.30;6.17;;;;;;;8.96;47.21;99832.81;1738726;82;21278;-71
2021/04/08 12:01:53;;;;;;;8.10;6.10;;;;;;;8.96;46.30;99838.00;1728842;81;21010;-81
2021/04/08 12:04:25;;;;;;;10.98;6.70;;;;;;;8.87;47.05;99848.86;1726721;81;21216;-72
2021/04/08 12:07:06;;;;;;;10.95;5.78;;;;;;;8.79;47.15;99857.53;1733296;82;21125;-73